Time;durP1;ratioP1;P1;durP2;ratioP2;P2;SDS_P1;SDS_P2;PMS_P1;PMS_P2;Temp;Humidity;BMP_temperature;BMP_pressure;BME280_temperature;BME280_humidity;BME280_pressure;Samples;Min_cycle;Max_cycle;Signal;HPM_P1;HPM_P2
2022/11/03 00:01:57;;;;;;;5.93;4.35;;;;;;;;;;5041825;28;20102;-71
2022/11/03 00:04:22;;;;;;;12.30;4.90;;;;;;;;;;5041200;28;20053;-71
2022/11/03 00:06:51;;;;;;;8.93;4.60;;;;;;;;;;5041369;28;20041;-71
2022/11/03 00:09:18;;;;;;;9.30;4.72;;;;;;;;;;5042022;28;20116;-71
2022/11/03 00:11:46;;;;;;;10.93;4.82;;;;;;;;;;5041492;28;20379;-71
2022/11/03 00:14:13;;;;;;;6.22;4.38;;;;;;;;;;5041477;28;20048;-71
2022/11/03 00:16:39;;;;;;;12.30;5.10;;;;;;;;;;5041195;28;20394;-71
2022/11/03 00:19:05;;;;;;;6.60;4.03;;;;;;;;;;5041797;28;20509;-71
2022/11/03 00:21:31;;;;;;;7.43;4.65;;;;;;;;;;5041047;28;20059;-71
2022/11/03 00:23:57;;;;;;;13.95;4.47;;;;;;;;;;5041710;28;20042;-72
2022/11/03 00:26:30;;;;;;;9.45;4.75;;;;;;;;;;5040638;28;20076;-71
2022/11/03 00:29:01;;;;;;;17.42;5.22;;;;;;;;;;5041368;28;20061;-70
2022/11/03 00:31:29;;;;;;;9.68;4.85;;;;;;;;;;5040768;28;20566;-71
2022/11/03 00:33:55;;;;;;;13.10;5.85;;;;;;;;;;5040901;28;20048;-71
2022/11/03 00:36:26;;;;;;;11.57;5.00;;;;;;;;;;5040024;28;20052;-71
2022/11/03 00:38:52;;;;;;;12.18;5.30;;;;;;;;;;5041146;28;20053;-71
2022/11/03 00:41:21;;;;;;;12.38;5.28;;;;;;;;;;5040911;28;20511;-74
2022/11/03 00:43:48;;;;;;;11.48;5.50;;;;;;;;;;5041530;28;20056;-71
2022/11/03 00:46:14;;;;;;;13.32;5.78;;;;;;;;;;5041043;28;20045;-71
2022/11/03 00:48:40;;;;;;;11.07;6.20;;;;;;;;;;5040103;28;20045;-71
2022/11/03 00:51:12;;;;;;;11.95;5.95;;;;;;;;;;5041160;28;20083;-70
2022/11/03 00:53:40;;;;;;;19.40;6.25;;;;;;;;;;5040313;28;20060;-71
2022/11/03 00:56:09;;;;;;;13.00;5.78;;;;;;;;;;5040916;28;20053;-70
2022/11/03 00:58:34;;;;;;;18.02;7.25;;;;;;;;;;5040112;28;20049;-71
2022/11/03 01:01:23;;;;;;;13.15;6.32;;;;;;;;;;5040373;28;20042;-71
2022/11/03 01:06:50;;;;;;;12.05;6.93;;;;;;;;;;5040689;28;20045;-71
2022/11/03 01:09:21;;;;;;;13.23;6.53;;;;;;;;;;5040012;28;20084;-71
2022/11/03 01:12:02;;;;;;;25.25;7.70;;;;;;;;;;5040377;28;20052;-72
2022/11/03 01:14:32;;;;;;;13.32;7.15;;;;;;;;;;5040634;28;20045;-71
2022/11/03 01:16:58;;;;;;;18.55;7.50;;;;;;;;;;5038782;28;20048;-71
2022/11/03 01:19:24;;;;;;;15.48;6.22;;;;;;;;;;5037012;28;20048;-71
2022/11/03 01:21:51;;;;;;;13.18;6.28;;;;;;;;;;5038779;28;20135;-71
2022/11/03 01:24:16;;;;;;;15.38;6.30;;;;;;;;;;5037944;28;20041;-70
2022/11/03 01:26:42;;;;;;;12.43;6.10;;;;;;;;;;5038209;28;20051;-70
2022/11/03 01:29:07;;;;;;;14.73;6.30;;;;;;;;;;5038339;28;20041;-71
2022/11/03 01:31:32;;;;;;;13.63;6.20;;;;;;;;;;5039838;28;20036;-72
2022/11/03 01:33:58;;;;;;;13.82;6.22;;;;;;;;;;5039518;28;20040;-71
2022/11/03 01:36:24;;;;;;;14.45;6.82;;;;;;;;;;5040346;28;20182;-71
2022/11/03 01:38:50;;;;;;;13.68;7.00;;;;;;;;;;5040260;28;20098;-70
2022/11/03 01:41:21;;;;;;;15.95;6.78;;;;;;;;;;5039637;28;20045;-71
2022/11/03 01:43:50;;;;;;;12.57;7.15;;;;;;;;;;5040191;28;20041;-69
2022/11/03 01:46:24;;;;;;;17.10;8.52;;;;;;;;;;5040086;28;20045;-71
2022/11/03 01:49:06;;;;;;;19.75;9.98;;;;;;;;;;5040205;28;20500;-71
2022/11/03 01:51:35;;;;;;;19.83;9.10;;;;;;;;;;5038960;28;20066;-72
2022/11/03 01:54:07;;;;;;;22.08;8.75;;;;;;;;;;5040221;28;20045;-70
2022/11/03 01:56:35;;;;;;;22.38;8.65;;;;;;;;;;5040319;28;20415;-71
2022/11/03 01:59:01;;;;;;;17.85;8.60;;;;;;;;;;5040052;28;20049;-71
2022/11/03 02:01:28;;;;;;;18.50;8.50;;;;;;;;;;5038470;28;20063;-70
2022/11/03 02:04:00;;;;;;;16.15;8.73;;;;;;;;;;5039990;28;20047;-71
2022/11/03 02:06:28;;;;;;;18.15;8.82;;;;;;;;;;5034408;28;20132;-70
2022/11/03 02:09:04;;;;;;;15.85;7.63;;;;;;;;;;5039489;28;20048;-70
2022/11/03 02:14:15;;;;;;;15.27;7.85;;;;;;;;;;5039048;28;20052;-71
2022/11/03 02:16:49;;;;;;;15.68;7.85;;;;;;;;;;5039730;28;20041;-71
2022/11/03 02:19:46;;;;;;;18.55;8.07;;;;;;;;;;5039788;28;20048;-71
2022/11/03 02:22:30;;;;;;;14.02;7.57;;;;;;;;;;5015718;28;20043;-70
2022/11/03 02:25:17;;;;;;;18.67;8.57;;;;;;;;;;5038724;28;20540;-70
2022/11/03 02:27:43;;;;;;;13.95;7.53;;;;;;;;;;5039105;28;20121;-70
2022/11/03 02:30:09;;;;;;;21.08;8.85;;;;;;;;;;5042718;28;20045;-70
2022/11/03 02:32:57;;;;;;;16.20;8.18;;;;;;;;;;5043523;28;20532;-70
2022/11/03 02:35:23;;;;;;;20.42;9.75;;;;;;;;;;5041518;28;20040;-70
2022/11/03 02:37:54;;;;;;;16.38;8.73;;;;;;;;;;5043293;28;20056;-71
2022/11/03 02:40:33;;;;;;;22.08;9.23;;;;;;;;;;5043796;28;20053;-70
2022/11/03 02:43:00;;;;;;;14.43;8.93;;;;;;;;;;5043715;28;20053;-70
2022/11/03 02:45:27;;;;;;;19.30;9.52;;;;;;;;;;5041989;28;20122;-70
2022/11/03 02:47:57;;;;;;;19.00;9.48;;;;;;;;;;5042804;28;20080;-70
2022/11/03 02:50:27;;;;;;;30.95;12.93;;;;;;;;;;5043237;28;21116;-69
2022/11/03 02:52:52;;;;;;;25.88;13.07;;;;;;;;;;5043165;28;20079;-69
2022/11/03 02:55:36;;;;;;;35.72;15.68;;;;;;;;;;5043612;28;20041;-70
2022/11/03 02:58:06;;;;;;;25.75;12.70;;;;;;;;;;5024924;28;20060;-69
2022/11/03 03:00:46;;;;;;;27.63;12.18;;;;;;;;;;5042692;28;20053;-69
2022/11/03 03:03:34;;;;;;;26.67;12.50;;;;;;;;;;5043112;28;20612;-69
2022/11/03 03:06:08;;;;;;;23.33;12.25;;;;;;;;;;5025188;28;20851;-69
2022/11/03 03:08:37;;;;;;;24.05;12.13;;;;;;;;;;5042394;28;20048;-70
2022/11/03 03:11:04;;;;;;;28.70;12.73;;;;;;;;;;5042924;28;20064;-70
2022/11/03 03:13:30;;;;;;;30.58;13.50;;;;;;;;;;5024532;28;20048;-69
2022/11/03 03:16:11;;;;;;;23.67;12.95;;;;;;;;;;5042737;28;20057;-69
2022/11/03 03:18:44;;;;;;;22.67;12.18;;;;;;;;;;5042492;28;20134;-69
2022/11/03 03:21:20;;;;;;;19.05;11.07;;;;;;;;;;5042636;28;20060;-70
2022/11/03 03:24:10;;;;;;;17.08;10.95;;;;;;;;;;5042683;28;20081;-69
2022/11/03 03:26:43;;;;;;;18.48;10.80;;;;;;;;;;5042076;28;20044;-69
2022/11/03 03:29:14;;;;;;;22.15;10.65;;;;;;;;;;5041988;28;20037;-69
2022/11/03 03:31:45;;;;;;;19.08;10.65;;;;;;;;;;5041766;28;20078;-70
2022/11/03 03:34:13;;;;;;;25.90;12.10;;;;;;;;;;5042134;28;20140;-70
2022/11/03 03:36:40;;;;;;;23.98;12.18;;;;;;;;;;5042039;28;20512;-70
2022/11/03 03:39:08;;;;;;;26.48;12.15;;;;;;;;;;5042278;28;20076;-70
2022/11/03 03:41:36;;;;;;;28.20;13.65;;;;;;;;;;5040770;28;20505;-70
2022/11/03 03:44:05;;;;;;;44.92;15.20;;;;;;;;;;5042257;28;20073;-70
2022/11/03 03:46:35;;;;;;;44.72;13.50;;;;;;;;;;5041891;28;20131;-70
2022/11/03 03:49:01;;;;;;;32.85;12.70;;;;;;;;;;5042333;28;20055;-70
2022/11/03 03:51:29;;;;;;;32.03;13.27;;;;;;;;;;5040723;28;20045;-70
2022/11/03 03:53:54;;;;;;;61.30;12.75;;;;;;;;;;5042087;28;20052;-71
2022/11/03 03:56:26;;;;;;;97.10;14.18;;;;;;;;;;5041590;28;20089;-71
2022/11/03 03:58:51;;;;;;;158.43;17.80;;;;;;;;;;5042137;28;20064;-71
2022/11/03 04:01:17;;;;;;;151.80;21.80;;;;;;;;;;5041966;28;20676;-67
2022/11/03 04:03:42;;;;;;;198.00;18.60;;;;;;;;;;5040443;28;20504;-68
2022/11/03 04:06:08;;;;;;;141.70;18.05;;;;;;;;;;5040187;28;20158;-67
2022/11/03 04:08:33;;;;;;;153.15;20.35;;;;;;;;;;5041877;28;20092;-68
2022/11/03 04:24:38;;;;;;;229.50;21.00;;;;;;;;;;5040827;28;20408;-70
2022/11/03 04:27:34;;;;;;;211.82;19.88;;;;;;;;;;5041177;28;20041;-69
2022/11/03 04:30:12;;;;;;;200.95;21.08;;;;;;;;;;5006780;28;20082;-70
2022/11/03 04:32:37;;;;;;;164.30;19.85;;;;;;;;;;5041492;28;20648;-70
2022/11/03 04:35:15;;;;;;;105.75;18.35;;;;;;;;;;5040923;28;20143;-69
2022/11/03 04:37:40;;;;;;;138.55;18.77;;;;;;;;;;5040563;28;20069;-70
2022/11/03 04:40:14;;;;;;;78.07;18.40;;;;;;;;;;5041288;28;20081;-69
2022/11/03 04:42:39;;;;;;;173.80;20.42;;;;;;;;;;5041287;28;20051;-70
2022/11/03 04:45:15;;;;;;;138.00;18.20;;;;;;;;;;5041125;28;20397;-69
2022/11/03 04:47:41;;;;;;;140.70;21.10;;;;;;;;;;5039556;28;20155;-69
2022/11/03 04:50:15;;;;;;;81.38;17.73;;;;;;;;;;5040875;28;20053;-69
2022/11/03 04:52:41;;;;;;;93.28;15.05;;;;;;;;;;5040305;28;21206;-69
2022/11/03 04:55:12;;;;;;;48.63;13.43;;;;;;;;;;5041138;28;20048;-70
2022/11/03 04:57:39;;;;;;;51.63;13.20;;;;;;;;;;5039621;28;20489;-70
2022/11/03 05:00:06;;;;;;;73.50;14.15;;;;;;;;;;5040760;28;20048;-70
2022/11/03 05:02:32;;;;;;;75.30;20.33;;;;;;;;;;5040751;28;20394;-68
2022/11/03 05:04:58;;;;;;;96.75;18.40;;;;;;;;;;5040769;28;20516;-69
2022/11/03 05:07:23;;;;;;;35.72;16.83;;;;;;;;;;5039992;28;20041;-69
2022/11/03 05:09:49;;;;;;;35.67;16.38;;;;;;;;;;5040961;28;20068;-70
2022/11/03 05:12:16;;;;;;;53.72;15.38;;;;;;;;;;5041431;28;20055;-68
2022/11/03 05:14:41;;;;;;;50.20;15.48;;;;;;;;;;5042485;28;20045;-71
2022/11/03 05:17:20;;;;;;;56.95;16.38;;;;;;;;;;5041713;28;20036;-71
2022/11/03 05:19:45;;;;;;;73.43;18.88;;;;;;;;;;5039179;28;20053;-71
2022/11/03 05:22:18;;;;;;;81.88;16.30;;;;;;;;;;5040766;28;20097;-72
2022/11/03 05:24:44;;;;;;;109.68;16.42;;;;;;;;;;5040596;28;20049;-69
2022/11/03 05:27:18;;;;;;;84.30;16.27;;;;;;;;;;5039693;28;20110;-71
2022/11/03 05:29:46;;;;;;;150.15;18.05;;;;;;;;;;5040101;28;20053;-71
2022/11/03 05:32:17;;;;;;;104.30;15.85;;;;;;;;;;5039508;28;20041;-71
2022/11/03 05:34:46;;;;;;;81.50;17.48;;;;;;;;;;5040170;28;20135;-70
2022/11/03 05:37:23;;;;;;;88.72;17.85;;;;;;;;;;5039974;28;20132;-70
2022/11/03 05:39:50;;;;;;;164.57;22.70;;;;;;;;;;5040370;28;20045;-69
2022/11/03 05:42:26;;;;;;;118.90;21.05;;;;;;;;;;5040517;28;20087;-71
2022/11/03 05:44:52;;;;;;;72.18;20.10;;;;;;;;;;5040332;28;20052;-70
2022/11/03 05:47:21;;;;;;;148.93;21.58;;;;;;;;;;5040194;28;20033;-72
2022/11/03 05:49:49;;;;;;;124.38;20.13;;;;;;;;;;5039013;28;20049;-71
2022/11/03 05:52:21;;;;;;;243.75;22.25;;;;;;;;;;5037664;28;20048;-71
2022/11/03 05:54:47;;;;;;;61.20;18.70;;;;;;;;;;5020049;28;20067;-70
2022/11/03 05:57:14;;;;;;;79.25;18.35;;;;;;;;;;5038626;28;20127;-70
2022/11/03 05:59:39;;;;;;;169.00;19.90;;;;;;;;;;5037592;28;20111;-68
2022/11/03 06:02:23;;;;;;;162.25;20.05;;;;;;;;;;5038469;28;20128;-69
2022/11/03 06:04:48;;;;;;;63.90;16.58;;;;;;;;;;5041927;28;20417;-68
2022/11/03 06:07:25;;;;;;;84.60;16.13;;;;;;;;;;5042954;28;20670;-69
2022/11/03 06:09:52;;;;;;;67.53;17.17;;;;;;;;;;5028456;28;20053;-69
2022/11/03 06:12:19;;;;;;;68.45;16.83;;;;;;;;;;5042340;28;20053;-70
2022/11/03 06:14:45;;;;;;;38.67;16.17;;;;;;;;;;5040901;28;20053;-71
2022/11/03 06:17:29;;;;;;;57.90;16.05;;;;;;;;;;5041713;28;20409;-70
2022/11/03 06:19:59;;;;;;;44.83;14.40;;;;;;;;;;5006855;28;20052;-70
2022/11/03 06:22:34;;;;;;;54.72;13.38;;;;;;;;;;5041278;28;20077;-70
2022/11/03 06:25:20;;;;;;;55.78;13.23;;;;;;;;;;5041237;28;20048;-70
2022/11/03 06:27:46;;;;;;;67.43;15.13;;;;;;;;;;5041110;28;20079;-70
2022/11/03 06:30:33;;;;;;;44.42;13.80;;;;;;;;;;5041553;28;20040;-70
2022/11/03 06:33:12;;;;;;;48.28;14.07;;;;;;;;;;5042395;28;20052;-70
2022/11/03 06:35:37;;;;;;;43.53;12.82;;;;;;;;;;5042113;28;20098;-70
2022/11/03 06:38:11;;;;;;;66.20;14.25;;;;;;;;;;5041846;28;20053;-70
2022/11/03 06:40:37;;;;;;;47.50;14.13;;;;;;;;;;5042693;28;20078;-70
2022/11/03 06:43:39;;;;;;;63.63;15.13;;;;;;;;;;5043279;28;20122;-71
2022/11/03 06:46:14;;;;;;;63.17;14.43;;;;;;;;;;5025500;28;20046;-70
2022/11/03 06:48:39;;;;;;;108.03;13.18;;;;;;;;;;5041387;28;20489;-70
2022/11/03 06:51:28;;;;;;;26.92;12.80;;;;;;;;;;5043036;28;20064;-70
2022/11/03 06:53:57;;;;;;;52.58;14.02;;;;;;;;;;5024836;28;20049;-69
2022/11/03 06:56:25;;;;;;;51.13;13.30;;;;;;;;;;5043132;28;20064;-68
2022/11/03 06:58:53;;;;;;;51.40;12.63;;;;;;;;;;5041788;28;20487;-69
2022/11/03 07:01:24;;;;;;;61.28;13.70;;;;;;;;;;5041504;28;20037;-68
2022/11/03 07:03:55;;;;;;;27.50;11.53;;;;;;;;;;5039899;28;20049;-68
2022/11/03 07:06:28;;;;;;;31.60;11.53;;;;;;;;;;5040068;28;20041;-68
2022/11/03 07:09:00;;;;;;;58.55;11.55;;;;;;;;;;5040602;28;20672;-69
2022/11/03 07:11:29;;;;;;;57.22;11.48;;;;;;;;;;5039166;28;20040;-68
2022/11/03 07:13:57;;;;;;;71.35;12.60;;;;;;;;;;5040262;28;20434;-68
2022/11/03 07:16:30;;;;;;;32.88;10.90;;;;;;;;;;5039950;28;20076;-68
2022/11/03 07:18:59;;;;;;;74.82;11.88;;;;;;;;;;5042217;28;20044;-68
2022/11/03 07:21:30;;;;;;;102.88;11.32;;;;;;;;;;5040995;28;20045;-68
2022/11/03 07:23:59;;;;;;;26.13;9.37;;;;;;;;;;5042649;28;20053;-68
2022/11/03 07:26:26;;;;;;;79.20;11.00;;;;;;;;;;5042336;28;20072;-69
2022/11/03 07:28:52;;;;;;;62.28;11.40;;;;;;;;;;5042788;28;20059;-68
2022/11/03 07:31:25;;;;;;;123.03;10.40;;;;;;;;;;5041776;28;20128;-69
2022/11/03 07:33:56;;;;;;;44.67;8.75;;;;;;;;;;5042539;28;20069;-68
2022/11/03 07:36:23;;;;;;;35.05;8.35;;;;;;;;;;5042610;28;20033;-68
2022/11/03 07:38:55;;;;;;;128.05;9.52;;;;;;;;;;5041735;28;20529;-69
2022/11/03 07:41:23;;;;;;;;;;;;;;;;;;5042520;28;20053;-74
2022/11/03 07:43:59;;;;;;;188.77;10.27;;;;;;;;;;5035847;28;20683;-70
2022/11/03 07:46:25;;;;;;;32.60;7.57;;;;;;;;;;5039778;28;20094;-71
2022/11/03 07:48:57;;;;;;;34.90;6.43;;;;;;;;;;5041450;28;20052;-69
2022/11/03 07:51:28;;;;;;;46.78;7.47;;;;;;;;;;5040798;28;20037;-70
2022/11/03 07:54:25;;;;;;;50.67;6.80;;;;;;;;;;5041236;28;20074;-70
2022/11/03 07:57:05;;;;;;;24.13;6.70;;;;;;;;;;5041736;28;20098;-69
2022/11/03 07:59:42;;;;;;;34.03;6.40;;;;;;;;;;5041484;28;20103;-71
2022/11/03 08:02:32;;;;;;;29.45;6.93;;;;;;;;;;5041703;28;20083;-70
2022/11/03 08:04:59;;;;;;;20.92;6.30;;;;;;;;;;5039957;28;20451;-70
2022/11/03 08:07:24;;;;;;;20.98;6.78;;;;;;;;;;5039646;28;20125;-70
2022/11/03 08:09:51;;;;;;;9.40;6.32;;;;;;;;;;5041724;28;20396;-70
2022/11/03 08:12:16;;;;;;;8.82;6.05;;;;;;;;;;5041416;28;20052;-72
2022/11/03 08:14:42;;;;;;;9.73;5.63;;;;;;;;;;5040717;28;20056;-71
2022/11/03 08:17:07;;;;;;;7.10;5.40;;;;;;;;;;5039285;28;20451;-71
2022/11/03 08:19:33;;;;;;;7.50;5.00;;;;;;;;;;5039207;28;20444;-71
2022/11/03 08:21:58;;;;;;;12.80;5.22;;;;;;;;;;5032548;28;20065;-70
2022/11/03 08:24:23;;;;;;;7.32;5.25;;;;;;;;;;5039420;28;20144;-69
2022/11/03 08:26:49;;;;;;;9.15;4.65;;;;;;;;;;5038020;28;20079;-70
2022/11/03 08:29:16;;;;;;;7.47;5.40;;;;;;;;;;5037101;28;20044;-70
2022/11/03 08:31:42;;;;;;;5.15;4.57;;;;;;;;;;5020077;28;20049;-72
2022/11/03 08:34:07;;;;;;;8.63;5.55;;;;;;;;;;5039031;28;20520;-70
2022/11/03 08:36:33;;;;;;;7.57;4.43;;;;;;;;;;5038447;28;20072;-70
2022/11/03 08:38:58;;;;;;;9.15;4.60;;;;;;;;;;5038405;28;20045;-70
2022/11/03 08:41:24;;;;;;;5.45;4.30;;;;;;;;;;5036695;28;20057;-70
2022/11/03 08:43:49;;;;;;;6.82;4.30;;;;;;;;;;5036283;28;20072;-70
2022/11/03 08:46:15;;;;;;;6.43;3.90;;;;;;;;;;5036567;28;20148;-71
2022/11/03 08:48:40;;;;;;;5.05;3.42;;;;;;;;;;5036922;28;20053;-70
2022/11/03 08:51:09;;;;;;;3.80;3.38;;;;;;;;;;5033828;28;20870;-71
2022/11/03 08:53:34;;;;;;;4.35;3.70;;;;;;;;;;5037942;28;20144;-71
2022/11/03 08:56:00;;;;;;;5.68;4.65;;;;;;;;;;5038045;28;20041;-71
2022/11/03 08:58:25;;;;;;;6.18;3.67;;;;;;;;;;5038130;28;20053;-70
2022/11/03 09:00:51;;;;;;;4.63;3.78;;;;;;;;;;5018891;28;20059;-70
2022/11/03 09:03:16;;;;;;;5.55;3.75;;;;;;;;;;5036911;28;20049;-70
2022/11/03 09:05:42;;;;;;;5.13;3.72;;;;;;;;;;5037088;28;20052;-70
2022/11/03 09:08:08;;;;;;;4.93;3.65;;;;;;;;;;5037432;28;20048;-70
2022/11/03 09:10:33;;;;;;;4.97;3.65;;;;;;;;;;5037563;28;20060;-70
2022/11/03 09:12:59;;;;;;;5.22;3.65;;;;;;;;;;5036688;28;20044;-75
2022/11/03 09:15:24;;;;;;;5.93;4.22;;;;;;;;;;5037485;28;20413;-69
2022/11/03 09:17:50;;;;;;;4.07;3.53;;;;;;;;;;5035621;28;20056;-71
2022/11/03 09:20:16;;;;;;;8.63;4.13;;;;;;;;;;5038362;28;20401;-71
2022/11/03 09:22:41;;;;;;;4.45;3.92;;;;;;;;;;5036521;28;20045;-70
2022/11/03 09:25:07;;;;;;;4.32;3.85;;;;;;;;;;5038508;28;20136;-70
2022/11/03 09:27:33;;;;;;;8.98;4.22;;;;;;;;;;5035464;28;20044;-70
2022/11/03 09:29:58;;;;;;;6.70;4.20;;;;;;;;;;5036402;28;20048;-70
2022/11/03 09:32:24;;;;;;;6.53;4.70;;;;;;;;;;5035252;28;20048;-70
2022/11/03 09:34:49;;;;;;;5.38;3.78;;;;;;;;;;5038658;28;20056;-70
2022/11/03 09:37:15;;;;;;;7.10;4.50;;;;;;;;;;5039480;28;20044;-70
2022/11/03 09:39:41;;;;;;;5.47;4.03;;;;;;;;;;5037993;28;20049;-70
2022/11/03 09:42:07;;;;;;;6.55;4.00;;;;;;;;;;5039862;28;20045;-71
2022/11/03 09:44:34;;;;;;;5.93;4.03;;;;;;;;;;5039060;28;20040;-71
2022/11/03 09:47:00;;;;;;;6.53;4.38;;;;;;;;;;5039620;28;20082;-70
2022/11/03 09:49:30;;;;;;;5.95;4.00;;;;;;;;;;5039488;28;20090;-70
2022/11/03 09:51:55;;;;;;;5.93;4.60;;;;;;;;;;5039444;28;20113;-70
2022/11/03 09:54:21;;;;;;;6.68;4.28;;;;;;;;;;5038659;28;20567;-70
2022/11/03 09:56:46;;;;;;;5.80;4.35;;;;;;;;;;5039629;28;20049;-69
2022/11/03 09:59:17;;;;;;;4.90;4.30;;;;;;;;;;5040094;28;20049;-69
2022/11/03 10:01:47;;;;;;;6.47;4.63;;;;;;;;;;5037753;28;20115;-70
2022/11/03 10:04:13;;;;;;;7.15;4.43;;;;;;;;;;5039868;28;20386;-71
2022/11/03 10:06:39;;;;;;;5.97;4.00;;;;;;;;;;5038614;28;20172;-71
2022/11/03 10:09:07;;;;;;;7.07;3.88;;;;;;;;;;5038070;28;20208;-71
2022/11/03 10:11:33;;;;;;;7.30;4.60;;;;;;;;;;5039221;28;20037;-70
2022/11/03 10:13:59;;;;;;;5.95;3.88;;;;;;;;;;5039868;28;20513;-70
2022/11/03 10:16:25;;;;;;;4.35;3.80;;;;;;;;;;5039400;28;20120;-69
2022/11/03 10:18:51;;;;;;;10.05;4.03;;;;;;;;;;5039724;28;20148;-70
2022/11/03 10:21:21;;;;;;;6.15;4.50;;;;;;;;;;5039747;28;20060;-69
2022/11/03 10:23:49;;;;;;;11.52;4.30;;;;;;;;;;5039343;28;20044;-71
2022/11/03 10:26:17;;;;;;;5.22;3.78;;;;;;;;;;5039763;28;20102;-70
2022/11/03 10:29:08;;;;;;;8.65;4.90;;;;;;;;;;5038703;28;20044;-70
2022/11/03 10:31:36;;;;;;;7.55;4.25;;;;;;;;;;5038933;28;20076;-71
2022/11/03 10:34:02;;;;;;;5.07;4.25;;;;;;;;;;5039879;28;20474;-70
2022/11/03 10:36:30;;;;;;;6.97;4.40;;;;;;;;;;5039539;28;20045;-70
2022/11/03 10:38:56;;;;;;;8.25;5.00;;;;;;;;;;5038610;28;20041;-70
2022/11/03 10:41:27;;;;;;;7.15;4.47;;;;;;;;;;5039253;28;20052;-71
2022/11/03 10:44:18;;;;;;;6.68;4.18;;;;;;;;;;5039593;28;20045;-72
2022/11/03 10:47:01;;;;;;;4.97;4.45;;;;;;;;;;5039027;28;20237;-71
2022/11/03 10:49:32;;;;;;;7.18;4.90;;;;;;;;;;5038147;28;21136;-71
2022/11/03 10:52:18;;;;;;;5.40;4.38;;;;;;;;;;5042946;28;20056;-70
2022/11/03 10:54:44;;;;;;;8.52;4.22;;;;;;;;;;5039850;28;20456;-70
2022/11/03 10:57:10;;;;;;;6.05;4.07;;;;;;;;;;5037157;28;20576;-71
2022/11/03 10:59:37;;;;;;;9.82;4.35;;;;;;;;;;5039524;28;20048;-71
2022/11/03 11:02:14;;;;;;;4.88;4.38;;;;;;;;;;5041291;28;20141;-70
2022/11/03 11:04:40;;;;;;;5.75;3.90;;;;;;;;;;5025139;28;20045;-71
2022/11/03 11:07:18;;;;;;;4.65;4.25;;;;;;;;;;5042343;28;20099;-71
2022/11/03 11:09:44;;;;;;;10.95;4.55;;;;;;;;;;5042383;28;20895;-71
2022/11/03 11:12:16;;;;;;;6.70;5.10;;;;;;;;;;5041400;28;20048;-70
2022/11/03 11:14:56;;;;;;;7.60;4.75;;;;;;;;;;5042648;28;20071;-71
2022/11/03 11:17:36;;;;;;;7.80;4.25;;;;;;;;;;5042252;28;20072;-70
2022/11/03 11:20:21;;;;;;;4.95;3.88;;;;;;;;;;5024205;28;20040;-69
2022/11/03 11:22:47;;;;;;;6.78;4.55;;;;;;;;;;5041055;28;20079;-70
2022/11/03 11:25:13;;;;;;;5.13;4.57;;;;;;;;;;5042529;28;20076;-70
2022/11/03 11:27:38;;;;;;;6.18;4.78;;;;;;;;;;5041699;28;20052;-71
2022/11/03 11:30:25;;;;;;;5.45;4.30;;;;;;;;;;5042453;28;20048;-70
2022/11/03 11:33:00;;;;;;;8.77;4.40;;;;;;;;;;5041959;28;20081;-70
2022/11/03 11:35:25;;;;;;;6.10;4.43;;;;;;;;;;5040632;28;20053;-70
2022/11/03 11:37:52;;;;;;;7.55;4.35;;;;;;;;;;5041621;28;20045;-70
2022/11/03 11:40:23;;;;;;;7.22;4.78;;;;;;;;;;5042549;28;20048;-70
2022/11/03 11:43:09;;;;;;;5.45;4.70;;;;;;;;;;5042489;28;20493;-70
2022/11/03 11:46:12;;;;;;;10.23;5.60;;;;;;;;;;5041001;28;20045;-70
2022/11/03 11:48:38;;;;;;;7.20;5.18;;;;;;;;;;5047284;28;20040;-70
2022/11/03 11:51:08;;;;;;;8.10;5.45;;;;;;;;;;5045391;28;20036;-71
2022/11/03 11:53:41;;;;;;;6.65;5.63;;;;;;;;;;5040853;28;20041;-70
2022/11/03 11:56:10;;;;;;;7.40;5.97;;;;;;;;;;5040957;28;20068;-71
2022/11/03 11:58:45;;;;;;;8.55;6.22;;;;;;;;;;5041590;28;20064;-70
2022/11/03 12:01:20;;;;;;;8.15;5.03;;;;;;;;;;5040897;28;20041;-72
2022/11/03 12:03:47;;;;;;;7.38;6.10;;;;;;;;;;5041102;28;20065;-71
2022/11/03 12:06:13;;;;;;;9.82;6.13;;;;;;;;;;5040931;28;20193;-70
2022/11/03 12:08:39;;;;;;;8.73;5.75;;;;;;;;;;5041104;28;20049;-69
2022/11/03 12:11:05;;;;;;;7.40;5.93;;;;;;;;;;5041459;28;20049;-69
2022/11/03 12:13:34;;;;;;;7.50;6.07;;;;;;;;;;5041047;28;20048;-69
2022/11/03 12:15:59;;;;;;;6.75;5.72;;;;;;;;;;5041378;28;20048;-70
2022/11/03 12:18:41;;;;;;;10.98;5.63;;;;;;;;;;5040553;28;20548;-70
2022/11/03 12:21:09;;;;;;;10.93;6.32;;;;;;;;;;5040733;28;20481;-71
2022/11/03 12:23:45;;;;;;;6.20;4.97;;;;;;;;;;5041030;28;20813;-71
2022/11/03 12:26:24;;;;;;;7.85;5.75;;;;;;;;;;5041041;28;20052;-71
2022/11/03 12:28:49;;;;;;;10.27;6.78;;;;;;;;;;5040231;28;20052;-71
2022/11/03 12:31:15;;;;;;;9.18;6.68;;;;;;;;;;5040856;28;20044;-69
2022/11/03 12:33:40;;;;;;;9.35;6.50;;;;;;;;;;5040561;28;20051;-69
2022/11/03 12:36:06;;;;;;;8.30;6.05;;;;;;;;;;5041473;28;20041;-70
2022/11/03 12:38:32;;;;;;;9.85;5.38;;;;;;;;;;5041125;28;20057;-70
2022/11/03 12:41:19;;;;;;;7.28;5.80;;;;;;;;;;5039502;28;20098;-70
2022/11/03 12:43:43;;;;;;;7.72;5.90;;;;;;;;;;5040473;28;20804;-70
2022/11/03 12:46:08;;;;;;;9.60;5.88;;;;;;;;;;5040339;28;20106;-70
2022/11/03 12:48:34;;;;;;;10.32;6.07;;;;;;;;;;5040939;28;20063;-70
2022/11/03 12:50:59;;;;;;;9.57;6.65;;;;;;;;;;5040131;28;20037;-68
2022/11/03 12:53:25;;;;;;;9.38;6.55;;;;;;;;;;5039866;28;20481;-70
2022/11/03 12:55:50;;;;;;;11.73;6.55;;;;;;;;;;5040884;28;20053;-69
2022/11/03 12:58:15;;;;;;;13.20;6.13;;;;;;;;;;5040885;28;20045;-69
2022/11/03 13:00:41;;;;;;;9.63;6.78;;;;;;;;;;5040611;28;20044;-69
2022/11/03 13:03:06;;;;;;;8.80;6.45;;;;;;;;;;5037924;28;20300;-69
2022/11/03 13:05:32;;;;;;;8.43;6.57;;;;;;;;;;5036438;28;20047;-70
2022/11/03 13:07:57;;;;;;;7.30;6.00;;;;;;;;;;5038139;28;20460;-70
2022/11/03 13:10:23;;;;;;;9.25;6.10;;;;;;;;;;5037505;28;20578;-70
2022/11/03 13:12:48;;;;;;;8.52;6.47;;;;;;;;;;5035191;28;20402;-70
2022/11/03 13:15:14;;;;;;;10.50;6.40;;;;;;;;;;5040074;28;20060;-70
2022/11/03 13:17:40;;;;;;;10.18;6.82;;;;;;;;;;5039180;28;20047;-70
2022/11/03 13:20:07;;;;;;;8.68;6.75;;;;;;;;;;5039561;28;20045;-70
2022/11/03 13:22:32;;;;;;;8.25;6.32;;;;;;;;;;5036463;28;20048;-70
2022/11/03 13:24:57;;;;;;;9.20;6.80;;;;;;;;;;5035983;28;20044;-70
2022/11/03 13:27:23;;;;;;;8.52;6.13;;;;;;;;;;5036295;28;20122;-74
2022/11/03 13:29:48;;;;;;;8.73;6.30;;;;;;;;;;5033938;28;20106;-69
2022/11/03 13:32:14;;;;;;;7.03;5.82;;;;;;;;;;5033454;28;20044;-70
2022/11/03 13:34:39;;;;;;;9.60;6.40;;;;;;;;;;5032908;28;20087;-70
2022/11/03 13:37:05;;;;;;;8.48;6.32;;;;;;;;;;5033613;28;20046;-70
2022/11/03 13:39:30;;;;;;;7.60;6.10;;;;;;;;;;5034770;28;20070;-70
2022/11/03 13:41:56;;;;;;;12.07;6.63;;;;;;;;;;5035146;28;20088;-69
2022/11/03 13:44:21;;;;;;;10.00;6.07;;;;;;;;;;5034561;28;20037;-70
2022/11/03 13:46:47;;;;;;;8.15;6.35;;;;;;;;;;5032689;28;20127;-70
2022/11/03 13:49:12;;;;;;;9.13;6.35;;;;;;;;;;5034280;28;20050;-70
2022/11/03 13:51:37;;;;;;;7.53;5.78;;;;;;;;;;5034014;28;20587;-70
2022/11/03 13:54:03;;;;;;;13.85;6.68;;;;;;;;;;5035204;28;20083;-70
2022/11/03 13:56:28;;;;;;;8.80;6.32;;;;;;;;;;5033423;28;20067;-70
2022/11/03 13:58:54;;;;;;;11.65;6.30;;;;;;;;;;5036098;28;20056;-70
2022/11/03 14:01:19;;;;;;;8.93;6.45;;;;;;;;;;5037599;28;20531;-70
2022/11/03 14:03:45;;;;;;;8.20;5.68;;;;;;;;;;5036004;28;20060;-70
2022/11/03 14:06:10;;;;;;;8.63;5.93;;;;;;;;;;5038168;28;20152;-69
2022/11/03 14:08:36;;;;;;;9.25;6.43;;;;;;;;;;5038192;28;20083;-69
2022/11/03 14:12:29;;;;;;;9.60;6.03;;;;;;;;;;5039032;28;20052;-71
2022/11/03 14:13:47;;;;;;;6.78;5.30;;;;;;;;;;5039729;28;20059;-70
2022/11/03 14:16:12;;;;;;;7.50;6.40;;;;;;;;;;5037180;28;20045;-69
2022/11/03 14:18:37;;;;;;;10.55;6.13;;;;;;;;;;5038582;28;20048;-70
2022/11/03 14:21:03;;;;;;;10.00;6.40;;;;;;;;;;5038454;28;20456;-70
2022/11/03 14:23:28;;;;;;;10.32;6.53;;;;;;;;;;5039250;28;20152;-70
2022/11/03 14:25:54;;;;;;;10.07;6.15;;;;;;;;;;5039987;28;20057;-70
2022/11/03 14:28:19;;;;;;;10.70;6.45;;;;;;;;;;5041122;28;20044;-69
2022/11/03 14:30:45;;;;;;;9.23;6.78;;;;;;;;;;5040894;28;20506;-70
2022/11/03 14:33:10;;;;;;;11.13;6.68;;;;;;;;;;5041110;28;20493;-70
2022/11/03 14:35:36;;;;;;;8.77;6.75;;;;;;;;;;5043074;28;20037;-70
2022/11/03 14:38:01;;;;;;;13.40;7.85;;;;;;;;;;5042781;28;20095;-70
2022/11/03 14:43:10;;;;;;;10.35;7.35;;;;;;;;;;5042763;28;20070;-70
2022/11/03 14:45:36;;;;;;;10.38;6.82;;;;;;;;;;5041165;28;20041;-69
2022/11/03 14:48:01;;;;;;;10.60;6.88;;;;;;;;;;5042989;28;20049;-70
2022/11/03 14:50:26;;;;;;;12.45;7.57;;;;;;;;;;5042780;28;20064;-70
2022/11/03 14:52:52;;;;;;;10.30;6.57;;;;;;;;;;5041503;28;20086;-70
2022/11/03 14:55:17;;;;;;;13.13;6.55;;;;;;;;;;5042894;28;20116;-69
2022/11/03 14:57:43;;;;;;;11.20;7.72;;;;;;;;;;5041836;28;20508;-69
2022/11/03 15:00:10;;;;;;;15.93;8.48;;;;;;;;;;5042873;28;20045;-70
2022/11/03 15:02:35;;;;;;;15.40;10.23;;;;;;;;;;5042514;28;20060;-69
2022/11/03 15:05:00;;;;;;;16.00;11.98;;;;;;;;;;5042739;28;20068;-68
2022/11/03 15:07:26;;;;;;;16.58;11.80;;;;;;;;;;5045760;28;20342;-70